Nevisdale, Kentucky
Current Conditions -  °F | °C
As of 9:15 AM on Sunday 21 Dec 2014 (Local Time) from K1A6 Reporting Station
Moderate Fog Moderate Fog  
Wind Chill: 25°   Ceiling: 200
Heat Index: 25°   Visibility: 0mi
Dew Point: 24°   Wind: 0mph
Humidity: 99%   Direction: NA
Pressure: 30.28"   Gusts: NA
Location:  36.69°N, 84.05°W
Report Text: K1A6 211415Z AUTO 00000KT M1/4SM FZFG OVC002 M04/M04 A3028 RMK AO2 T10411042
Loading
Personal Weather Stations






























Interactive Weather Map New forecast layout! Learn more

10-Day Weather Forecast

Advertisements
Track Severe Weather on mobile